sensor_id;sensor_type;location;lat;lon;timestamp;P1;durP1;ratioP1;P2;durP2;ratioP2
17197;SDS011;8715;51.010;6.812;2023-10-08T00:01:07;945.85;;;871.30;;
17197;SDS011;8715;51.010;6.812;2023-10-08T00:03:55;949.55;;;874.35;;
17197;SDS011;8715;51.010;6.812;2023-10-08T00:06:41;947.38;;;872.35;;
17197;SDS011;8715;51.010;6.812;2023-10-08T00:09:29;945.88;;;871.17;;
17197;SDS011;8715;51.010;6.812;2023-10-08T00:12:19;945.53;;;870.80;;
17197;SDS011;8715;51.010;6.812;2023-10-08T00:15:05;946.53;;;871.50;;
17197;SDS011;8715;51.010;6.812;2023-10-08T00:17:55;946.78;;;872.42;;
17197;SDS011;8715;51.010;6.812;2023-10-08T00:20:42;943.83;;;869.00;;
17197;SDS011;8715;51.010;6.812;2023-10-08T00:23:38;944.63;;;870.28;;
17197;SDS011;8715;51.010;6.812;2023-10-08T00:26:26;943.38;;;868.95;;
17197;SDS011;8715;51.010;6.812;2023-10-08T00:29:13;944.60;;;870.22;;
17197;SDS011;8715;51.010;6.812;2023-10-08T00:32:04;947.28;;;872.60;;
17197;SDS011;8715;51.010;6.812;2023-10-08T00:34:56;944.60;;;870.45;;
17197;SDS011;8715;51.010;6.812;2023-10-08T00:40:35;943.78;;;870.00;;
17197;SDS011;8715;51.010;6.812;2023-10-08T00:43:31;945.38;;;871.50;;
17197;SDS011;8715;51.010;6.812;2023-10-08T00:46:18;944.78;;;870.65;;
17197;SDS011;8715;51.010;6.812;2023-10-08T00:49:08;942.63;;;868.42;;
17197;SDS011;8715;51.010;6.812;2023-10-08T00:52:09;945.63;;;872.00;;
17197;SDS011;8715;51.010;6.812;2023-10-08T00:55:04;944.78;;;870.65;;
17197;SDS011;8715;51.010;6.812;2023-10-08T00:57:58;944.55;;;870.80;;
17197;SDS011;8715;51.010;6.812;2023-10-08T01:00:55;943.50;;;869.65;;
17197;SDS011;8715;51.010;6.812;2023-10-08T01:03:43;958.78;;;884.88;;
17197;SDS011;8715;51.010;6.812;2023-10-08T01:06:29;941.92;;;868.08;;
17197;SDS011;8715;51.010;6.812;2023-10-08T01:09:14;951.92;;;878.30;;
17197;SDS011;8715;51.010;6.812;2023-10-08T01:12:13;944.90;;;870.95;;
17197;SDS011;8715;51.010;6.812;2023-10-08T01:15:07;944.65;;;870.97;;
17197;SDS011;8715;51.010;6.812;2023-10-08T01:17:59;943.95;;;870.20;;
17197;SDS011;8715;51.010;6.812;2023-10-08T01:20:45;940.92;;;868.05;;
17197;SDS011;8715;51.010;6.812;2023-10-08T01:23:37;941.53;;;868.10;;
17197;SDS011;8715;51.010;6.812;2023-10-08T01:26:23;940.40;;;867.50;;
17197;SDS011;8715;51.010;6.812;2023-10-08T01:29:09;950.40;;;877.83;;
17197;SDS011;8715;51.010;6.812;2023-10-08T01:32:03;941.35;;;868.35;;
17197;SDS011;8715;51.010;6.812;2023-10-08T01:34:53;939.67;;;867.20;;
17197;SDS011;8715;51.010;6.812;2023-10-08T01:37:40;941.15;;;868.25;;
17197;SDS011;8715;51.010;6.812;2023-10-08T01:40:26;939.03;;;866.67;;
17197;SDS011;8715;51.010;6.812;2023-10-08T01:43:13;952.78;;;879.83;;
17197;SDS011;8715;51.010;6.812;2023-10-08T01:45:58;944.95;;;871.90;;
17197;SDS011;8715;51.010;6.812;2023-10-08T01:48:44;938.63;;;866.08;;
17197;SDS011;8715;51.010;6.812;2023-10-08T01:51:29;938.75;;;866.75;;
17197;SDS011;8715;51.010;6.812;2023-10-08T01:54:22;944.75;;;871.95;;
17197;SDS011;8715;51.010;6.812;2023-10-08T01:57:11;939.47;;;867.38;;
17197;SDS011;8715;51.010;6.812;2023-10-08T01:59:56;940.60;;;868.75;;
17197;SDS011;8715;51.010;6.812;2023-10-08T02:02:42;937.75;;;866.30;;
17197;SDS011;8715;51.010;6.812;2023-10-08T02:05:27;938.80;;;867.60;;
17197;SDS011;8715;51.010;6.812;2023-10-08T02:08:14;938.65;;;867.17;;
17197;SDS011;8715;51.010;6.812;2023-10-08T02:11:00;935.67;;;864.30;;
17197;SDS011;8715;51.010;6.812;2023-10-08T02:13:47;939.85;;;868.70;;
17197;SDS011;8715;51.010;6.812;2023-10-08T02:16:34;936.35;;;865.03;;
17197;SDS011;8715;51.010;6.812;2023-10-08T02:19:21;940.60;;;869.70;;
17197;SDS011;8715;51.010;6.812;2023-10-08T02:22:10;936.55;;;865.15;;
17197;SDS011;8715;51.010;6.812;2023-10-08T02:24:55;935.22;;;864.63;;
17197;SDS011;8715;51.010;6.812;2023-10-08T02:27:45;934.63;;;863.47;;
17197;SDS011;8715;51.010;6.812;2023-10-08T02:30:32;931.53;;;860.90;;
17197;SDS011;8715;51.010;6.812;2023-10-08T02:33:17;939.28;;;868.25;;
17197;SDS011;8715;51.010;6.812;2023-10-08T02:36:03;932.92;;;862.22;;
17197;SDS011;8715;51.010;6.812;2023-10-08T02:38:48;931.95;;;861.25;;
17197;SDS011;8715;51.010;6.812;2023-10-08T02:41:34;932.20;;;861.63;;
17197;SDS011;8715;51.010;6.812;2023-10-08T02:44:19;934.33;;;863.60;;
17197;SDS011;8715;51.010;6.812;2023-10-08T02:47:07;931.90;;;861.47;;
17197;SDS011;8715;51.010;6.812;2023-10-08T02:49:53;936.10;;;865.55;;
17197;SDS011;8715;51.010;6.812;2023-10-08T02:52:38;939.47;;;868.08;;
17197;SDS011;8715;51.010;6.812;2023-10-08T02:55:23;935.42;;;864.85;;
17197;SDS011;8715;51.010;6.812;2023-10-08T02:58:12;935.00;;;864.20;;
17197;SDS011;8715;51.010;6.812;2023-10-08T03:00:58;933.63;;;862.85;;
17197;SDS011;8715;51.010;6.812;2023-10-08T03:03:45;945.85;;;874.45;;
17197;SDS011;8715;51.010;6.812;2023-10-08T03:06:31;946.30;;;875.55;;
17197;SDS011;8715;51.010;6.812;2023-10-08T03:09:17;938.85;;;867.85;;
17197;SDS011;8715;51.010;6.812;2023-10-08T03:12:04;934.72;;;863.90;;
17197;SDS011;8715;51.010;6.812;2023-10-08T03:14:54;938.45;;;867.65;;
17197;SDS011;8715;51.010;6.812;2023-10-08T03:17:56;933.25;;;862.80;;
17197;SDS011;8715;51.010;6.812;2023-10-08T03:20:55;934.92;;;864.22;;
17197;SDS011;8715;51.010;6.812;2023-10-08T03:23:47;938.47;;;867.78;;
17197;SDS011;8715;51.010;6.812;2023-10-08T03:26:34;932.70;;;862.22;;
17197;SDS011;8715;51.010;6.812;2023-10-08T03:29:19;935.95;;;865.20;;
17197;SDS011;8715;51.010;6.812;2023-10-08T03:32:05;929.08;;;859.20;;
17197;SDS011;8715;51.010;6.812;2023-10-08T03:34:50;932.72;;;862.78;;
17197;SDS011;8715;51.010;6.812;2023-10-08T03:40:30;938.97;;;870.25;;
17197;SDS011;8715;51.010;6.812;2023-10-08T03:43:26;931.20;;;861.38;;
17197;SDS011;8715;51.010;6.812;2023-10-08T03:46:26;932.67;;;862.90;;
17197;SDS011;8715;51.010;6.812;2023-10-08T03:49:12;934.60;;;864.33;;
17197;SDS011;8715;51.010;6.812;2023-10-08T03:52:08;929.15;;;859.63;;
17197;SDS011;8715;51.010;6.812;2023-10-08T03:54:55;930.33;;;860.22;;
17197;SDS011;8715;51.010;6.812;2023-10-08T03:57:49;934.97;;;865.03;;
17197;SDS011;8715;51.010;6.812;2023-10-08T04:00:42;933.80;;;863.55;;
17197;SDS011;8715;51.010;6.812;2023-10-08T04:03:29;929.75;;;860.08;;
17197;SDS011;8715;51.010;6.812;2023-10-08T04:06:34;928.80;;;859.25;;
17197;SDS011;8715;51.010;6.812;2023-10-08T04:09:22;933.67;;;863.33;;
17197;SDS011;8715;51.010;6.812;2023-10-08T04:12:10;931.60;;;861.45;;
17197;SDS011;8715;51.010;6.812;2023-10-08T04:14:55;938.42;;;868.92;;
17197;SDS011;8715;51.010;6.812;2023-10-08T04:17:40;929.45;;;859.80;;
17197;SDS011;8715;51.010;6.812;2023-10-08T04:20:28;930.13;;;860.30;;
17197;SDS011;8715;51.010;6.812;2023-10-08T04:23:19;930.40;;;860.47;;
17197;SDS011;8715;51.010;6.812;2023-10-08T04:26:04;931.20;;;861.45;;
17197;SDS011;8715;51.010;6.812;2023-10-08T04:28:53;930.15;;;860.58;;
17197;SDS011;8715;51.010;6.812;2023-10-08T04:31:41;936.80;;;866.78;;
17197;SDS011;8715;51.010;6.812;2023-10-08T04:34:30;931.10;;;861.33;;
17197;SDS011;8715;51.010;6.812;2023-10-08T04:37:17;933.63;;;863.97;;
17197;SDS011;8715;51.010;6.812;2023-10-08T04:40:05;933.20;;;863.58;;
17197;SDS011;8715;51.010;6.812;2023-10-08T04:42:59;931.45;;;861.92;;
17197;SDS011;8715;51.010;6.812;2023-10-08T04:45:48;936.17;;;867.33;;
17197;SDS011;8715;51.010;6.812;2023-10-08T04:48:34;931.70;;;862.17;;
17197;SDS011;8715;51.010;6.812;2023-10-08T04:51:20;931.65;;;861.97;;
17197;SDS011;8715;51.010;6.812;2023-10-08T04:54:06;930.05;;;860.55;;
17197;SDS011;8715;51.010;6.812;2023-10-08T04:56:53;928.78;;;859.60;;
17197;SDS011;8715;51.010;6.812;2023-10-08T04:59:38;930.78;;;861.20;;
17197;SDS011;8715;51.010;6.812;2023-10-08T05:02:25;938.75;;;869.83;;
17197;SDS011;8715;51.010;6.812;2023-10-08T05:05:20;940.70;;;871.60;;
17197;SDS011;8715;51.010;6.812;2023-10-08T05:08:13;931.53;;;861.67;;
17197;SDS011;8715;51.010;6.812;2023-10-08T05:11:12;928.83;;;859.63;;
17197;SDS011;8715;51.010;6.812;2023-10-08T05:14:08;931.85;;;862.53;;
17197;SDS011;8715;51.010;6.812;2023-10-08T05:17:01;931.00;;;861.92;;
17197;SDS011;8715;51.010;6.812;2023-10-08T05:19:54;929.33;;;860.20;;
17197;SDS011;8715;51.010;6.812;2023-10-08T05:23:00;927.92;;;858.83;;
17197;SDS011;8715;51.010;6.812;2023-10-08T05:26:01;929.45;;;859.92;;
17197;SDS011;8715;51.010;6.812;2023-10-08T05:28:52;928.80;;;860.08;;
17197;SDS011;8715;51.010;6.812;2023-10-08T05:31:44;929.88;;;860.88;;
17197;SDS011;8715;51.010;6.812;2023-10-08T05:34:37;929.90;;;860.47;;
17197;SDS011;8715;51.010;6.812;2023-10-08T05:37:36;929.30;;;860.35;;
17197;SDS011;8715;51.010;6.812;2023-10-08T05:40:26;928.63;;;859.65;;
17197;SDS011;8715;51.010;6.812;2023-10-08T05:43:38;938.05;;;868.97;;
17197;SDS011;8715;51.010;6.812;2023-10-08T05:46:55;927.25;;;858.92;;
17197;SDS011;8715;51.010;6.812;2023-10-08T05:49:59;932.22;;;863.42;;
17197;SDS011;8715;51.010;6.812;2023-10-08T05:53:00;924.35;;;856.03;;
17197;SDS011;8715;51.010;6.812;2023-10-08T05:56:04;925.30;;;857.30;;
17197;SDS011;8715;51.010;6.812;2023-10-08T05:59:00;936.67;;;868.22;;
17197;SDS011;8715;51.010;6.812;2023-10-08T06:01:58;924.70;;;856.63;;
17197;SDS011;8715;51.010;6.812;2023-10-08T06:04:50;933.28;;;864.22;;
17197;SDS011;8715;51.010;6.812;2023-10-08T06:07:53;925.95;;;857.60;;
17197;SDS011;8715;51.010;6.812;2023-10-08T06:10:41;934.22;;;866.55;;
17197;SDS011;8715;51.010;6.812;2023-10-08T06:13:28;927.50;;;859.05;;
17197;SDS011;8715;51.010;6.812;2023-10-08T06:16:29;924.97;;;857.00;;
17197;SDS011;8715;51.010;6.812;2023-10-08T06:19:25;925.53;;;857.55;;
17197;SDS011;8715;51.010;6.812;2023-10-08T06:22:10;929.80;;;861.38;;
17197;SDS011;8715;51.010;6.812;2023-10-08T06:24:55;937.88;;;869.40;;
17197;SDS011;8715;51.010;6.812;2023-10-08T06:28:02;930.05;;;861.05;;
17197;SDS011;8715;51.010;6.812;2023-10-08T06:30:48;928.97;;;860.40;;
17197;SDS011;8715;51.010;6.812;2023-10-08T06:33:37;937.15;;;868.50;;
17197;SDS011;8715;51.010;6.812;2023-10-08T06:36:24;931.00;;;861.83;;
17197;SDS011;8715;51.010;6.812;2023-10-08T06:39:11;929.97;;;861.05;;
17197;SDS011;8715;51.010;6.812;2023-10-08T06:42:02;927.35;;;858.88;;
17197;SDS011;8715;51.010;6.812;2023-10-08T06:44:49;938.58;;;869.95;;
17197;SDS011;8715;51.010;6.812;2023-10-08T06:47:37;926.40;;;857.80;;
17197;SDS011;8715;51.010;6.812;2023-10-08T06:50:22;929.13;;;860.33;;
17197;SDS011;8715;51.010;6.812;2023-10-08T06:53:08;928.55;;;858.90;;
17197;SDS011;8715;51.010;6.812;2023-10-08T06:55:53;928.35;;;859.28;;
17197;SDS011;8715;51.010;6.812;2023-10-08T06:58:40;932.38;;;862.38;;
17197;SDS011;8715;51.010;6.812;2023-10-08T07:01:30;930.92;;;861.25;;
17197;SDS011;8715;51.010;6.812;2023-10-08T07:04:23;927.53;;;857.88;;
17197;SDS011;8715;51.010;6.812;2023-10-08T07:07:08;935.17;;;865.25;;
17197;SDS011;8715;51.010;6.812;2023-10-08T07:09:55;932.53;;;862.45;;
17197;SDS011;8715;51.010;6.812;2023-10-08T07:12:40;934.60;;;864.10;;
17197;SDS011;8715;51.010;6.812;2023-10-08T07:15:29;934.72;;;864.53;;
17197;SDS011;8715;51.010;6.812;2023-10-08T07:18:17;937.83;;;867.28;;
17197;SDS011;8715;51.010;6.812;2023-10-08T07:21:08;935.58;;;864.78;;
17197;SDS011;8715;51.010;6.812;2023-10-08T07:23:56;936.88;;;865.88;;
17197;SDS011;8715;51.010;6.812;2023-10-08T07:26:43;936.17;;;864.80;;
17197;SDS011;8715;51.010;6.812;2023-10-08T07:29:31;937.00;;;865.75;;
17197;SDS011;8715;51.010;6.812;2023-10-08T07:32:16;938.33;;;866.72;;
17197;SDS011;8715;51.010;6.812;2023-10-08T07:35:04;937.75;;;866.30;;
17197;SDS011;8715;51.010;6.812;2023-10-08T07:38:08;940.55;;;868.47;;
17197;SDS011;8715;51.010;6.812;2023-10-08T07:40:53;949.80;;;877.63;;
17197;SDS011;8715;51.010;6.812;2023-10-08T07:43:39;941.13;;;868.47;;
17197;SDS011;8715;51.010;6.812;2023-10-08T07:46:25;938.42;;;865.97;;
17197;SDS011;8715;51.010;6.812;2023-10-08T07:49:10;940.90;;;868.03;;
17197;SDS011;8715;51.010;6.812;2023-10-08T07:51:59;949.83;;;877.25;;
17197;SDS011;8715;51.010;6.812;2023-10-08T07:54:44;939.30;;;866.85;;
17197;SDS011;8715;51.010;6.812;2023-10-08T07:57:29;942.72;;;869.40;;
17197;SDS011;8715;51.010;6.812;2023-10-08T08:00:15;940.78;;;867.83;;
17197;SDS011;8715;51.010;6.812;2023-10-08T08:03:06;941.83;;;868.63;;
17197;SDS011;8715;51.010;6.812;2023-10-08T08:05:51;939.67;;;867.03;;
17197;SDS011;8715;51.010;6.812;2023-10-08T08:08:39;939.55;;;867.03;;
17197;SDS011;8715;51.010;6.812;2023-10-08T08:11:24;936.58;;;864.35;;
17197;SDS011;8715;51.010;6.812;2023-10-08T08:14:09;935.28;;;863.55;;
17197;SDS011;8715;51.010;6.812;2023-10-08T08:16:55;945.85;;;874.38;;
17197;SDS011;8715;51.010;6.812;2023-10-08T08:19:40;941.00;;;869.22;;
17197;SDS011;8715;51.010;6.812;2023-10-08T08:22:28;941.55;;;869.50;;
17197;SDS011;8715;51.010;6.812;2023-10-08T08:25:17;935.33;;;864.15;;
17197;SDS011;8715;51.010;6.812;2023-10-08T08:28:10;936.78;;;865.75;;
17197;SDS011;8715;51.010;6.812;2023-10-08T08:31:03;936.47;;;865.03;;
17197;SDS011;8715;51.010;6.812;2023-10-08T08:33:57;938.53;;;866.78;;
17197;SDS011;8715;51.010;6.812;2023-10-08T08:36:43;939.15;;;867.22;;
17197;SDS011;8715;51.010;6.812;2023-10-08T08:45:06;940.60;;;868.38;;
17197;SDS011;8715;51.010;6.812;2023-10-08T08:47:52;943.10;;;870.08;;
17197;SDS011;8715;51.010;6.812;2023-10-08T08:50:39;942.65;;;869.25;;
17197;SDS011;8715;51.010;6.812;2023-10-08T08:53:25;942.33;;;869.08;;
17197;SDS011;8715;51.010;6.812;2023-10-08T08:56:10;955.75;;;881.83;;
17197;SDS011;8715;51.010;6.812;2023-10-08T08:58:58;943.42;;;870.15;;
17197;SDS011;8715;51.010;6.812;2023-10-08T09:04:31;942.17;;;869.22;;
17197;SDS011;8715;51.010;6.812;2023-10-08T09:07:19;940.95;;;867.15;;
17197;SDS011;8715;51.010;6.812;2023-10-08T09:10:05;952.70;;;879.03;;
17197;SDS011;8715;51.010;6.812;2023-10-08T09:12:56;945.22;;;870.97;;
17197;SDS011;8715;51.010;6.812;2023-10-08T09:15:43;944.88;;;870.60;;
17197;SDS011;8715;51.010;6.812;2023-10-08T09:18:29;945.75;;;870.85;;
17197;SDS011;8715;51.010;6.812;2023-10-08T09:21:16;948.35;;;873.03;;
17197;SDS011;8715;51.010;6.812;2023-10-08T09:24:06;948.50;;;873.10;;
17197;SDS011;8715;51.010;6.812;2023-10-08T09:26:55;945.92;;;870.92;;
17197;SDS011;8715;51.010;6.812;2023-10-08T09:29:41;949.88;;;874.00;;
17197;SDS011;8715;51.010;6.812;2023-10-08T09:32:28;949.90;;;874.50;;
17197;SDS011;8715;51.010;6.812;2023-10-08T09:35:17;946.92;;;871.45;;
17197;SDS011;8715;51.010;6.812;2023-10-08T09:38:03;946.22;;;871.15;;
17197;SDS011;8715;51.010;6.812;2023-10-08T09:40:49;947.90;;;872.97;;
17197;SDS011;8715;51.010;6.812;2023-10-08T09:43:36;948.97;;;874.13;;
17197;SDS011;8715;51.010;6.812;2023-10-08T09:46:23;947.65;;;873.22;;
17197;SDS011;8715;51.010;6.812;2023-10-08T09:49:13;952.45;;;878.65;;
17197;SDS011;8715;51.010;6.812;2023-10-08T09:52:01;945.33;;;870.95;;
17197;SDS011;8715;51.010;6.812;2023-10-08T09:54:51;944.22;;;869.55;;
17197;SDS011;8715;51.010;6.812;2023-10-08T09:57:39;946.60;;;872.13;;
17197;SDS011;8715;51.010;6.812;2023-10-08T10:00:25;945.78;;;871.25;;
17197;SDS011;8715;51.010;6.812;2023-10-08T10:03:15;946.83;;;872.00;;
17197;SDS011;8715;51.010;6.812;2023-10-08T10:06:04;946.88;;;871.88;;
17197;SDS011;8715;51.010;6.812;2023-10-08T10:08:55;946.72;;;871.88;;
17197;SDS011;8715;51.010;6.812;2023-10-08T10:11:45;945.97;;;870.90;;
17197;SDS011;8715;51.010;6.812;2023-10-08T10:14:40;947.97;;;872.45;;
17197;SDS011;8715;51.010;6.812;2023-10-08T10:20:12;945.33;;;870.97;;
17197;SDS011;8715;51.010;6.812;2023-10-08T10:22:59;948.50;;;873.35;;
17197;SDS011;8715;51.010;6.812;2023-10-08T10:25:44;947.72;;;872.65;;
17197;SDS011;8715;51.010;6.812;2023-10-08T10:28:32;950.97;;;874.72;;
17197;SDS011;8715;51.010;6.812;2023-10-08T10:31:18;952.30;;;875.38;;
17197;SDS011;8715;51.010;6.812;2023-10-08T10:34:04;959.55;;;883.33;;
17197;SDS011;8715;51.010;6.812;2023-10-08T10:36:51;954.20;;;876.78;;
17197;SDS011;8715;51.010;6.812;2023-10-08T10:39:54;957.72;;;879.78;;
17197;SDS011;8715;51.010;6.812;2023-10-08T10:42:46;956.65;;;878.78;;
17197;SDS011;8715;51.010;6.812;2023-10-08T10:45:37;959.03;;;880.88;;
17197;SDS011;8715;51.010;6.812;2023-10-08T10:48:25;955.63;;;877.75;;
17197;SDS011;8715;51.010;6.812;2023-10-08T10:51:18;959.00;;;880.90;;
17197;SDS011;8715;51.010;6.812;2023-10-08T10:54:04;959.10;;;880.70;;
17197;SDS011;8715;51.010;6.812;2023-10-08T10:59:49;956.60;;;879.10;;
17197;SDS011;8715;51.010;6.812;2023-10-08T11:05:26;959.08;;;880.60;;
17197;SDS011;8715;51.010;6.812;2023-10-08T11:08:13;959.03;;;879.90;;
17197;SDS011;8715;51.010;6.812;2023-10-08T11:11:01;962.33;;;882.58;;
17197;SDS011;8715;51.010;6.812;2023-10-08T11:13:51;963.00;;;883.42;;
17197;SDS011;8715;51.010;6.812;2023-10-08T11:16:38;960.70;;;881.13;;
17197;SDS011;8715;51.010;6.812;2023-10-08T11:19:23;962.90;;;882.67;;
17197;SDS011;8715;51.010;6.812;2023-10-08T11:22:11;960.35;;;880.22;;
17197;SDS011;8715;51.010;6.812;2023-10-08T11:25:00;968.45;;;887.35;;
17197;SDS011;8715;51.010;6.812;2023-10-08T11:27:50;962.80;;;882.40;;
17197;SDS011;8715;51.010;6.812;2023-10-08T11:30:44;960.40;;;880.67;;
17197;SDS011;8715;51.010;6.812;2023-10-08T11:33:31;961.22;;;881.20;;
17197;SDS011;8715;51.010;6.812;2023-10-08T11:36:16;961.83;;;881.60;;
17197;SDS011;8715;51.010;6.812;2023-10-08T11:39:09;961.72;;;881.60;;
17197;SDS011;8715;51.010;6.812;2023-10-08T11:42:05;959.97;;;880.22;;
17197;SDS011;8715;51.010;6.812;2023-10-08T11:44:50;962.95;;;883.47;;
17197;SDS011;8715;51.010;6.812;2023-10-08T11:47:37;960.08;;;880.45;;
17197;SDS011;8715;51.010;6.812;2023-10-08T11:50:26;967.35;;;888.40;;
17197;SDS011;8715;51.010;6.812;2023-10-08T11:53:18;961.95;;;881.85;;
17197;SDS011;8715;51.010;6.812;2023-10-08T11:56:04;963.53;;;883.53;;
17197;SDS011;8715;51.010;6.812;2023-10-08T11:58:56;962.15;;;882.33;;
17197;SDS011;8715;51.010;6.812;2023-10-08T12:01:42;962.90;;;883.08;;
17197;SDS011;8715;51.010;6.812;2023-10-08T12:04:28;962.80;;;882.35;;
17197;SDS011;8715;51.010;6.812;2023-10-08T12:07:13;967.40;;;887.80;;
17197;SDS011;8715;51.010;6.812;2023-10-08T12:12:46;961.10;;;881.85;;
17197;SDS011;8715;51.010;6.812;2023-10-08T12:15:32;961.13;;;882.05;;
17197;SDS011;8715;51.010;6.812;2023-10-08T12:18:22;960.00;;;880.53;;
17197;SDS011;8715;51.010;6.812;2023-10-08T12:21:10;961.83;;;882.08;;
17197;SDS011;8715;51.010;6.812;2023-10-08T12:23:58;962.42;;;882.67;;
17197;SDS011;8715;51.010;6.812;2023-10-08T12:26:48;960.63;;;881.20;;
17197;SDS011;8715;51.010;6.812;2023-10-08T12:29:34;958.40;;;879.38;;
17197;SDS011;8715;51.010;6.812;2023-10-08T12:32:19;958.50;;;879.80;;
17197;SDS011;8715;51.010;6.812;2023-10-08T12:35:09;956.83;;;877.67;;
17197;SDS011;8715;51.010;6.812;2023-10-08T12:37:58;957.58;;;878.60;;
17197;SDS011;8715;51.010;6.812;2023-10-08T12:40:43;961.42;;;882.28;;
17197;SDS011;8715;51.010;6.812;2023-10-08T12:43:36;958.47;;;879.72;;
17197;SDS011;8715;51.010;6.812;2023-10-08T12:46:22;958.17;;;879.35;;
17197;SDS011;8715;51.010;6.812;2023-10-08T12:49:09;956.33;;;877.83;;
17197;SDS011;8715;51.010;6.812;2023-10-08T12:51:55;959.90;;;880.97;;
17197;SDS011;8715;51.010;6.812;2023-10-08T12:54:44;957.78;;;879.53;;
17197;SDS011;8715;51.010;6.812;2023-10-08T12:57:30;959.97;;;881.30;;
17197;SDS011;8715;51.010;6.812;2023-10-08T13:00:18;954.88;;;876.45;;
17197;SDS011;8715;51.010;6.812;2023-10-08T13:03:07;957.08;;;879.08;;
17197;SDS011;8715;51.010;6.812;2023-10-08T13:05:59;959.05;;;880.20;;
17197;SDS011;8715;51.010;6.812;2023-10-08T13:08:48;962.25;;;882.75;;
17197;SDS011;8715;51.010;6.812;2023-10-08T13:11:37;960.25;;;880.72;;
17197;SDS011;8715;51.010;6.812;2023-10-08T13:14:22;969.75;;;890.03;;
17197;SDS011;8715;51.010;6.812;2023-10-08T13:17:07;972.22;;;892.28;;
17197;SDS011;8715;51.010;6.812;2023-10-08T13:19:54;961.53;;;881.90;;
17197;SDS011;8715;51.010;6.812;2023-10-08T13:22:40;961.85;;;881.53;;
17197;SDS011;8715;51.010;6.812;2023-10-08T13:25:27;965.88;;;885.40;;
17197;SDS011;8715;51.010;6.812;2023-10-08T13:28:15;970.70;;;890.72;;
17197;SDS011;8715;51.010;6.812;2023-10-08T13:31:01;963.72;;;883.28;;
17197;SDS011;8715;51.010;6.812;2023-10-08T13:33:53;973.03;;;892.38;;
17197;SDS011;8715;51.010;6.812;2023-10-08T13:36:40;966.42;;;885.92;;
17197;SDS011;8715;51.010;6.812;2023-10-08T13:39:26;964.05;;;883.17;;
17197;SDS011;8715;51.010;6.812;2023-10-08T13:42:11;964.70;;;883.97;;
17197;SDS011;8715;51.010;6.812;2023-10-08T13:45:05;963.60;;;882.75;;
17197;SDS011;8715;51.010;6.812;2023-10-08T13:47:53;965.45;;;884.30;;
17197;SDS011;8715;51.010;6.812;2023-10-08T13:50:40;967.88;;;886.08;;
17197;SDS011;8715;51.010;6.812;2023-10-08T13:53:25;965.00;;;884.38;;
17197;SDS011;8715;51.010;6.812;2023-10-08T13:56:13;966.30;;;885.25;;
17197;SDS011;8715;51.010;6.812;2023-10-08T13:58:58;963.95;;;883.17;;
17197;SDS011;8715;51.010;6.812;2023-10-08T14:01:57;974.72;;;893.88;;
17197;SDS011;8715;51.010;6.812;2023-10-08T14:04:45;965.20;;;884.13;;
17197;SDS011;8715;51.010;6.812;2023-10-08T14:07:34;966.30;;;885.22;;
17197;SDS011;8715;51.010;6.812;2023-10-08T14:10:20;966.65;;;884.92;;
17197;SDS011;8715;51.010;6.812;2023-10-08T14:13:13;967.58;;;886.00;;
17197;SDS011;8715;51.010;6.812;2023-10-08T14:16:03;975.25;;;894.38;;
17197;SDS011;8715;51.010;6.812;2023-10-08T14:18:53;968.45;;;886.85;;
17197;SDS011;8715;51.010;6.812;2023-10-08T14:21:39;967.65;;;886.38;;
17197;SDS011;8715;51.010;6.812;2023-10-08T14:24:33;969.88;;;888.50;;
17197;SDS011;8715;51.010;6.812;2023-10-08T14:27:21;967.90;;;886.80;;
17197;SDS011;8715;51.010;6.812;2023-10-08T14:30:10;968.33;;;887.13;;
17197;SDS011;8715;51.010;6.812;2023-10-08T14:32:59;967.03;;;886.05;;
17197;SDS011;8715;51.010;6.812;2023-10-08T14:35:48;964.95;;;884.05;;
17197;SDS011;8715;51.010;6.812;2023-10-08T14:38:51;964.53;;;883.55;;
17197;SDS011;8715;51.010;6.812;2023-10-08T14:41:54;963.05;;;882.40;;
17197;SDS011;8715;51.010;6.812;2023-10-08T14:44:57;961.42;;;881.15;;
17197;SDS011;8715;51.010;6.812;2023-10-08T14:47:42;960.83;;;880.83;;
17197;SDS011;8715;51.010;6.812;2023-10-08T14:50:29;968.90;;;889.58;;
17197;SDS011;8715;51.010;6.812;2023-10-08T14:56:03;957.28;;;878.20;;
17197;SDS011;8715;51.010;6.812;2023-10-08T14:58:49;969.13;;;890.47;;
17197;SDS011;8715;51.010;6.812;2023-10-08T15:01:34;956.85;;;878.65;;
17197;SDS011;8715;51.010;6.812;2023-10-08T15:04:19;959.72;;;881.03;;
17197;SDS011;8715;51.010;6.812;2023-10-08T15:07:05;958.60;;;880.08;;
17197;SDS011;8715;51.010;6.812;2023-10-08T15:09:53;969.42;;;891.25;;
17197;SDS011;8715;51.010;6.812;2023-10-08T15:12:41;957.25;;;879.15;;
17197;SDS011;8715;51.010;6.812;2023-10-08T15:15:26;957.50;;;878.65;;
17197;SDS011;8715;51.010;6.812;2023-10-08T15:18:18;956.35;;;878.00;;
17197;SDS011;8715;51.010;6.812;2023-10-08T15:21:03;966.55;;;888.15;;
17197;SDS011;8715;51.010;6.812;2023-10-08T15:23:48;952.70;;;874.60;;
17197;SDS011;8715;51.010;6.812;2023-10-08T15:26:35;960.58;;;881.78;;
17197;SDS011;8715;51.010;6.812;2023-10-08T15:29:20;956.90;;;878.40;;
17197;SDS011;8715;51.010;6.812;2023-10-08T15:32:09;958.83;;;880.22;;
17197;SDS011;8715;51.010;6.812;2023-10-08T15:34:54;961.22;;;883.10;;
17197;SDS011;8715;51.010;6.812;2023-10-08T15:37:40;955.30;;;877.10;;
17197;SDS011;8715;51.010;6.812;2023-10-08T15:40:25;957.42;;;878.78;;
17197;SDS011;8715;51.010;6.812;2023-10-08T15:43:12;955.05;;;876.90;;
17197;SDS011;8715;51.010;6.812;2023-10-08T15:45:57;964.85;;;887.58;;
17197;SDS011;8715;51.010;6.812;2023-10-08T15:48:42;957.50;;;879.30;;
17197;SDS011;8715;51.010;6.812;2023-10-08T15:51:28;956.60;;;878.40;;
17197;SDS011;8715;51.010;6.812;2023-10-08T15:54:15;956.35;;;878.53;;
17197;SDS011;8715;51.010;6.812;2023-10-08T15:57:04;965.67;;;887.80;;
17197;SDS011;8715;51.010;6.812;2023-10-08T15:59:50;961.50;;;882.97;;
17197;SDS011;8715;51.010;6.812;2023-10-08T16:02:36;961.83;;;882.88;;
17197;SDS011;8715;51.010;6.812;2023-10-08T16:05:21;958.15;;;879.47;;
17197;SDS011;8715;51.010;6.812;2023-10-08T16:08:06;964.95;;;887.13;;
17197;SDS011;8715;51.010;6.812;2023-10-08T16:10:52;958.75;;;880.70;;
17197;SDS011;8715;51.010;6.812;2023-10-08T16:13:37;957.60;;;879.38;;
17197;SDS011;8715;51.010;6.812;2023-10-08T16:16:25;957.97;;;880.22;;
17197;SDS011;8715;51.010;6.812;2023-10-08T16:19:10;952.35;;;874.83;;
17197;SDS011;8715;51.010;6.812;2023-10-08T16:21:55;958.10;;;880.28;;
17197;SDS011;8715;51.010;6.812;2023-10-08T16:24:41;952.80;;;875.65;;
17197;SDS011;8715;51.010;6.812;2023-10-08T16:27:26;953.45;;;876.25;;
17197;SDS011;8715;51.010;6.812;2023-10-08T16:30:11;965.30;;;887.85;;
17197;SDS011;8715;51.010;6.812;2023-10-08T16:33:00;953.63;;;876.47;;
17197;SDS011;8715;51.010;6.812;2023-10-08T16:35:49;952.30;;;875.45;;
17197;SDS011;8715;51.010;6.812;2023-10-08T16:38:35;951.75;;;875.40;;
17197;SDS011;8715;51.010;6.812;2023-10-08T16:41:21;950.75;;;874.03;;